Latest Weather Observations for Eucla

IDW60801

Issued at 10:03 pm WST Wednesday 8 July 2020 (issued every 10 minutes, with the page automatically refreshed every 10 minutes)

About weather observations | Map of weather stations | Latest weather observations for WA | Other Formats
Station Details ID: 011003 Name: EUCLA Lat: -31.68 Lon: 128.90 Height: 93.1 m
Data from the previous 72 hours. | See also: Recent months at Eucla
Date/Time
WST
Temp
°C
App
Temp
°C
Dew
Point
°C
Rel
Hum
%
Delta-T
°C
Wind Press
QNH
hPa
Press
MSL
hPa
Rain since
9am
mm
Dir  Spd
km/h
Gust
km/h
Spd
kts
Gust
kts
08/10:00pm 10.0 8.3 8.4 90 0.8 SSE 7 9 4 5 1020.5 1020.5 0.0
08/09:30pm 10.7 8.7 8.5 86 1.1 SSE 9 9 5 5 1020.6 1020.6 0.0
08/09:00pm 11.8 9.9 9.2 84 1.3 SSE 9 11 5 6 1020.7 1020.7 0.0
08/08:30pm 11.7 9.8 8.9 83 1.4 S 9 11 5 6 1020.8 1020.8 0.0
08/08:00pm 12.2 10.4 9.4 83 1.4 S 9 11 5 6 1020.9 1020.9 0.0
08/07:30pm 12.4 10.2 9.4 82 1.5 S 11 13 6 7 1020.9 1020.9 0.0
08/07:00pm 12.5 10.4 9.7 83 1.4 S 11 13 6 7 1020.9 1020.9 0.0
08/06:30pm 12.8 10.8 10.0 83 1.4 S 11 15 6 8 1020.7 1020.7 0.0
08/06:00pm 12.8 10.7 9.6 81 1.6 SSW 11 15 6 8 1020.7 1020.7 0.0
08/05:30pm 13.3 11.4 10.5 83 1.5 S 11 13 6 7 1020.5 1020.5 0.0
08/05:00pm 13.7 12.0 9.9 78 2.0 S 9 11 5 6 1020.3 1020.3 0.0
08/04:30pm 14.6 12.6 10.0 74 2.4 S 11 15 6 8 1020.0 1020.0 0.0
08/04:00pm 15.5 12.7 10.1 70 2.8 SSW 15 20 8 11 1019.8 1019.8 0.0
08/03:30pm 16.1 13.2 9.5 65 3.4 S 15 20 8 11 1019.7 1019.7 0.0
08/03:00pm 17.0 13.7 9.4 61 4.0 SSW 17 26 9 14 1019.6 1019.6 0.0
08/02:30pm 17.4 14.2 9.8 61 4.0 S 17 28 9 15 1019.4 1019.4 0.0
08/02:00pm 18.2 14.7 8.7 54 4.9 SSW 17 24 9 13 1019.1 1019.1 0.0
08/01:30pm 19.4 15.4 6.5 43 6.5 S 17 22 9 12 1018.7 1018.8 0.0
08/01:00pm 19.9 16.5 7.6 45 6.3 S 15 19 8 10 1019.1 1019.1 0.0
08/12:30pm 19.6 15.8 6.0 41 6.8 S 15 24 8 13 1019.4 1019.4 0.0
08/12:00pm 21.1 17.3 3.8 32 8.3 SSE 13 17 7 9 1019.5 1019.5 0.0
08/11:30am 22.3 18.7 0.8 24 9.9 WSW 9 15 5 8 1019.7 1019.7 0.0
08/11:00am 21.7 18.1 0.8 25 9.5 NW 9 15 5 8 1020.2 1020.2 0.0
08/10:30am 20.6 17.0 0.4 26 9.1 W 9 17 5 9 1020.5 1020.5 0.0
08/10:00am 19.3 15.1 -1.2 25 8.8 NW 11 15 6 8 1020.9 1020.9 0.0
08/09:30am 17.1 11.7 -1.5 28 7.8 NW 17 22 9 12 1021.2 1021.2 0.0
08/09:00am 15.3 9.3 -1.7 31 6.9 NW 20 30 11 16 1021.4 1021.4 0.0
08/08:30am 13.8 7.5 -1.0 36 6.1 NNW 22 30 12 16 1021.2 1021.2 0.0
08/08:00am 11.4 6.0 -1.0 42 4.9 N 17 26 9 14 1020.8 1020.8 0.0
08/07:30am 8.7 3.0 -1.1 50 3.8 N 19 30 10 16 1020.8 1020.8 0.0
08/07:00am 7.3 1.3 -1.4 54 3.3 N 20 26 11 14 1020.4 1020.4 0.0
08/06:30am 7.0 1.0 -1.4 55 3.2 N 20 30 11 16 1020.2 1020.2 0.0
08/06:00am 7.0 0.6 -1.4 55 3.2 N 22 28 12 15 1020.2 1020.2 0.0
08/05:30am 7.0 1.0 -1.4 55 3.2 N 20 28 11 15 1020.2 1020.2 0.0
08/05:00am 7.2 1.2 -1.5 54 3.3 N 20 28 11 15 1020.3 1020.3 0.0
08/04:30am 7.4 1.4 -1.3 54 3.3 N 20 28 11 15 1020.2 1020.2 0.0
08/04:00am 8.0 2.0 -1.2 52 3.5 N 20 26 11 14 1020.5 1020.5 0.0
08/03:30am 8.3 2.4 -1.0 52 3.6 N 20 26 11 14 1020.5 1020.5 0.0
08/03:00am 8.4 2.5 -0.9 52 3.6 N 20 30 11 16 1020.4 1020.4 0.0
08/02:30am 8.5 2.6 -0.8 52 3.6 N 20 28 11 15 1020.8 1020.8 0.0
08/02:00am 8.8 2.9 -0.8 51 3.7 N 20 26 11 14 1020.7 1020.7 0.0
08/01:30am 9.7 3.8 -0.5 49 4.1 N 20 26 11 14 1020.7 1020.7 0.0
08/01:00am 10.4 4.7 -0.4 47 4.3 N 19 28 10 15 1020.8 1020.8 0.0
08/12:30am 10.9 5.1 -0.2 46 4.5 N 20 26 11 14 1020.9 1020.9 0.0
08/12:00am 11.3 5.4 -0.5 44 4.8 N 20 28 11 15 1021.0 1021.0 0.0
 
Date/Time
WST
Temp
°C
App
Temp
°C
Dew
Point
°C
Rel
Hum
%
Delta-T
°C
Wind Press
QNH
hPa
Press
MSL
hPa
Rain since
9am
mm
Dir  Spd
km/h
Gust
km/h
Spd
kts
Gust
kts
07/11:30pm 12.1 5.9 -0.4 42 5.1 N 22 32 12 17 1021.1 1021.1 0.0
07/11:00pm 12.9 6.3 -0.4 40 5.5 N 24 33 13 18 1020.9 1020.9 0.0
07/10:30pm 13.5 6.5 -0.2 39 5.7 N 26 39 14 21 1021.0 1021.0 0.0
07/10:00pm 14.0 7.1 -0.1 38 5.9 N 26 35 14 19 1020.9 1020.9 0.0
07/09:30pm 14.2 7.2 -0.3 37 6.1 N 26 39 14 21 1020.9 1020.9 0.0
07/09:00pm 14.0 6.6 -0.4 37 6.0 NNE 28 39 15 21 1021.0 1021.0 0.0
07/08:30pm 14.5 7.8 -0.8 35 6.3 NNE 24 35 13 19 1021.0 1021.0 0.0
07/08:00pm 15.1 8.4 -1.0 33 6.7 NNE 24 35 13 19 1021.1 1021.1 0.0
07/07:30pm 15.5 8.7 -1.5 31 7.0 NNE 24 33 13 18 1021.0 1021.0 0.0
07/07:00pm 16.1 9.3 -1.5 30 7.3 NNE 24 35 13 19 1021.2 1021.2 0.0
07/06:30pm 16.4 9.9 -2.1 28 7.6 NNE 22 32 12 17 1021.1 1021.1 0.0
07/06:00pm 16.7 10.8 -2.4 27 7.8 NNE 19 28 10 15 1021.3 1021.3 0.0
07/05:30pm 17.4 11.5 -2.3 26 8.1 NNE 19 26 10 14 1021.2 1021.2 0.0
07/05:00pm 18.3 12.8 -2.0 25 8.5 NNE 17 22 9 12 1021.0 1021.0 0.0
07/04:30pm 19.5 14.0 -2.2 23 9.2 NNE 17 26 9 14 1020.9 1020.9 0.0
07/04:00pm 20.7 14.9 -1.8 22 9.7 NNE 19 28 10 15 1021.1 1021.1 0.0
07/03:30pm 21.7 16.2 -2.2 20 10.3 NNE 17 26 9 14 1021.4 1021.4 0.0
07/03:00pm 22.2 16.7 -1.8 20 10.4 NNE 17 26 9 14 1021.4 1021.4 0.0
07/02:30pm 22.4 16.9 -2.3 19 10.7 NNE 17 28 9 15 1021.5 1021.5 0.0
07/02:00pm 22.5 16.7 -1.6 20 10.5 N 19 28 10 15 1021.8 1021.8 0.0
07/01:30pm 22.2 16.4 -1.8 20 10.5 N 19 32 10 17 1022.0 1022.0 0.0
07/01:00pm 22.0 16.0 -1.3 21 10.2 N 20 28 11 15 1022.1 1022.1 0.0
07/12:30pm 21.5 15.3 -0.5 23 9.8 N 22 35 12 19 1022.7 1022.7 0.0
07/12:00pm 20.8 14.3 0.1 25 9.2 N 24 32 13 17 1023.2 1023.2 0.0
07/11:30am 20.3 13.4 0.2 26 9.0 N 26 35 14 19 1023.6 1023.6 0.0
07/11:00am 19.3 12.0 -0.1 27 8.5 N 28 39 15 21 1024.1 1024.1 0.0
07/10:30am 18.7 11.5 0.8 30 8.0 N 28 39 15 21 1024.7 1024.7 0.0
07/10:00am 17.4 10.6 0.6 32 7.3 N 26 39 14 21 1025.0 1025.0 0.0
07/09:30am 16.2 9.3 0.3 34 6.9 N 26 37 14 20 1025.0 1025.0 0.0
07/09:00am 14.6 7.4 0.5 38 6.0 N 28 39 15 21 1025.3 1025.4 0.0
07/08:30am 12.7 5.9 0.8 44 5.0 N 26 37 14 20 1025.4 1025.5 0.0
07/08:00am 11.2 4.7 0.6 48 4.4 N 24 33 13 18 1025.4 1025.5 0.0
07/07:30am 9.6 2.4 0.5 53 3.7 N 28 37 15 20 1025.0 1025.0 0.0
07/07:00am 7.8 1.3 0.5 60 2.9 N 24 32 13 17 1025.0 1025.0 0.0
07/06:30am 7.1 0.6 0.5 63 2.6 N 24 32 13 17 1024.8 1024.8 0.0
07/06:00am 7.3 0.9 0.7 63 2.6 N 24 32 13 17 1024.7 1024.7 0.0
07/05:30am 7.6 1.2 1.0 63 2.7 N 24 33 13 18 1024.6 1024.6 0.0
07/05:00am 7.9 1.5 0.9 61 2.8 N 24 32 13 17 1024.4 1024.4 0.0
07/04:30am 8.1 2.1 0.8 60 2.9 N 22 30 12 16 1024.3 1024.3 0.0
07/04:00am 7.9 1.4 0.4 59 3.0 N 24 33 13 18 1024.4 1024.4 0.0
07/03:30am 8.6 2.1 0.6 57 3.2 N 24 32 13 17 1024.7 1024.7 0.0
07/03:00am 8.8 2.3 0.3 55 3.4 NNE 24 35 13 19 1024.7 1024.7 0.0
07/02:30am 9.8 3.3 0.4 52 3.8 NNE 24 35 13 19 1025.0 1025.0 0.0
07/02:00am 10.3 3.9 1.2 53 3.8 NNE 24 33 13 18 1025.1 1025.1 0.0
07/01:30am 9.9 3.5 1.0 54 3.7 NNE 24 37 13 20 1024.9 1024.9 0.0
07/01:00am 9.8 3.8 1.2 55 3.5 NNE 22 33 12 18 1025.3 1025.4 0.0
07/12:30am 9.4 3.9 1.6 58 3.3 NNE 20 30 11 16 1025.4 1025.5 0.0
07/12:00am 9.4 4.2 2.3 61 3.0 NNE 19 28 10 15 1025.9 1026.0 0.0
 
Date/Time
WST
Temp
°C
App
Temp
°C
Dew
Point
°C
Rel
Hum
%
Delta-T
°C
Wind Press
QNH
hPa
Press
MSL
hPa
Rain since
9am
mm
Dir  Spd
km/h
Gust
km/h
Spd
kts
Gust
kts
06/11:30pm 9.2 4.4 2.5 63 2.8 NNE 17 24 9 13 1026.4 1026.5 0.0
06/11:00pm 9.4 4.9 2.3 61 3.0 NNE 15 19 8 10 1026.5 1026.6 0.0
06/10:30pm 9.7 5.1 1.6 57 3.4 NNE 15 20 8 11 1026.8 1026.9 0.0
06/10:00pm 10.2 5.5 1.1 53 3.8 NE 15 19 8 10 1026.7 1026.8 0.0
06/09:30pm 10.1 5.2 -0.4 48 4.2 NE 15 17 8 9 1026.8 1026.9 0.0
06/09:00pm 10.2 5.5 -1.5 44 4.5 NE 13 19 7 10 1026.6 1026.7 0.0
06/08:30pm 11.2 6.2 -1.5 41 5.0 NE 15 19 8 10 1026.5 1026.6 0.0
06/08:00pm 11.6 6.5 -1.9 39 5.3 NE 15 19 8 10 1026.7 1026.8 0.0
06/07:30pm 11.8 7.0 -2.4 37 5.5 NE 13 17 7 9 1026.9 1027.0 0.0
06/07:00pm 12.1 7.3 -2.5 36 5.6 NNE 13 15 7 8 1026.8 1026.9 0.0
06/06:30pm 12.8 8.0 -2.6 34 6.0 NNE 13 15 7 8 1026.7 1026.8 0.0
06/06:00pm 13.7 8.9 -2.7 32 6.4 NE 13 17 7 9 1026.4 1026.5 0.0
06/05:30pm 14.0 9.6 -2.8 31 6.6 NNE 11 13 6 7 1026.2 1026.3 0.0
06/05:00pm 15.7 11.3 -2.7 28 7.4 NNE 11 13 6 7 1026.1 1026.2 0.0
06/04:30pm 17.8 13.0 -2.5 25 8.4 NNE 13 20 7 11 1025.9 1026.0 0.0
06/04:00pm 19.0 13.4 -2.6 23 9.0 NNE 17 28 9 15 1025.7 1025.8 0.0
06/03:30pm 19.9 14.4 -2.4 22 9.4 NNE 17 26 9 14 1025.7 1025.8 0.0
06/03:00pm 20.4 14.3 -2.0 22 9.5 NNE 20 32 11 17 1025.7 1025.8 0.0
06/02:30pm 21.0 14.9 -2.1 21 9.9 N 20 32 11 17 1025.8 1025.9 0.0
06/02:00pm 21.2 15.1 -2.6 20 10.1 NNE 20 35 11 19 1025.9 1026.0 0.0
06/01:30pm 21.5 15.6 -2.4 20 10.2 NNE 19 30 10 16 1026.2 1026.3 0.0
06/01:00pm 21.3 15.3 -1.9 21 10.0 NNE 20 32 11 17 1026.5 1026.6 0.0
06/12:30pm 21.7 15.7 -1.6 21 10.2 NNE 20 32 11 17 1026.8 1026.9 0.0
06/12:00pm 21.3 13.8 -1.3 22 9.8 N 28 37 15 20 1027.0 1027.1 0.0
06/11:30am 20.8 13.0 -0.5 24 9.4 NNE 30 43 16 23 1027.5 1027.6 0.0
06/11:00am 20.4 13.1 0.3 26 8.9 NNE 28 44 15 24 1028.0 1028.1 0.0
06/10:30am 19.5 12.3 1.0 29 8.3 N 28 44 15 24 1028.4 1028.5 0.0
06/10:00am 18.2 11.5 1.7 33 7.4 N 26 37 14 20 1028.8 1028.9 0.0
06/09:30am 16.2 10.1 2.9 41 6.1 N 24 35 13 19 1029.2 1029.3 0.0
06/09:00am 14.3 7.8 2.9 46 5.1 N 26 35 14 19 1029.4 1029.5 0.0
06/08:30am 13.0 6.9 2.6 49 4.6 N 24 33 13 18 1029.2 1029.3 0.0
06/08:00am 10.7 4.5 2.3 56 3.6 N 24 33 13 18 1029.0 1029.1 0.0
06/07:30am 8.7 2.9 2.1 63 2.8 N 22 30 12 16 1028.9 1029.0 0.0
06/07:00am 7.2 1.3 1.9 69 2.2 N 22 28 12 15 1028.6 1028.7 0.0
06/06:30am 6.9 1.4 2.0 71 2.0 N 20 28 11 15 1028.2 1028.3 0.0
06/06:00am 7.5 1.7 2.4 70 2.1 N 22 32 12 17 1027.8 1027.9 0.0
06/05:30am 7.5 2.1 2.6 71 2.1 N 20 28 11 15 1027.6 1027.7 0.0
06/05:00am 8.2 2.5 3.1 70 2.2 NNE 22 30 12 16 1027.5 1027.6 0.0
06/04:30am 8.5 3.3 3.6 71 2.1 NNE 20 32 11 17 1027.2 1027.3 0.0
06/04:00am 8.7 3.6 3.9 72 2.1 NNE 20 32 11 17 1027.0 1027.1 0.0
06/03:30am 8.6 3.8 4.4 75 1.9 NNE 19 28 10 15 1027.1 1027.2 0.0
06/03:00am 8.6 3.7 5.2 79 1.5 NNE 20 28 11 15 1027.0 1027.1 0.0
06/02:30am 9.0 4.4 5.7 80 1.5 NNE 19 28 10 15 1027.2 1027.3 0.0
06/02:00am 8.9 4.8 6.3 84 1.2 NNE 17 24 9 13 1027.3 1027.4 0.0
06/01:30am 9.2 5.3 7.2 87 0.9 NNE 17 26 9 14 1027.4 1027.5 0.0
06/01:00am 9.6 5.9 7.9 89 0.8 NNE 17 24 9 13 1027.5 1027.6 0.0
06/12:30am 9.8 6.2 8.2 90 0.8 NE 17 26 9 14 1027.6 1027.7 0.0
06/12:00am 10.2 6.7 8.6 90 0.8 NE 17 24 9 13 1027.7 1027.8 0.0
 
Date/Time
WST
Temp
°C
App
Temp
°C
Dew
Point
°C
Rel
Hum
%
Delta-T
°C
Wind Press
QNH
hPa
Press
MSL
hPa
Rain since
9am
mm
Dir  Spd
km/h
Gust
km/h
Spd
kts
Gust
kts
05/11:30pm 10.2 6.6 8.5 89 0.8 NE 17 28 9 15 1027.9 1028.0 0.0
05/11:00pm 10.0 6.4 8.3 89 0.8 NE 17 26 9 14 1028.1 1028.2 0.0
05/10:30pm 10.0 6.3 8.1 88 0.9 NE 17 24 9 13 1028.3 1028.4 0.0

Other formats

Comma delimited format used in spreadsheet applications
http://www.bom.gov.au/fwo/IDW60801/IDW60801.94647.axf

JavaScript Object Notation format (JSON) in row-major order
http://www.bom.gov.au/fwo/IDW60801/IDW60801.94647.json

Data quality

Most of these data are generated automatically and are frequently updated. Quality checks on data are not normally performed. It is possible for incorrect values to appear. Refer to information at About Latest Weather Observations and please check the disclaimer before using these data.